Time;durP1;ratioP1;P1;durP2;ratioP2;P2;SDS_P1;SDS_P2;PMS_P1;PMS_P2;Temp;Humidity;BMP_temperature;BMP_pressure;BME280_temperature;BME280_humidity;BME280_pressure;Samples;Min_cycle;Max_cycle;Signal;HPM_P1;HPM_P2
2020/12/01 00:01:04;;;;;;;19.63;12.48;;;-1.00;93.60;;;;;;5028110;28;20371;-77
2020/12/01 00:03:30;;;;;;;20.48;14.07;;;-0.30;90.40;;;;;;5029467;28;20040;-77
2020/12/01 00:05:56;;;;;;;21.38;14.32;;;-0.30;90.20;;;;;;5029054;28;20127;-77
2020/12/01 00:08:22;;;;;;;20.33;13.93;;;0.20;90.40;;;;;;5011614;28;20033;-77
2020/12/01 00:10:48;;;;;;;19.20;12.88;;;;;;;;;;5029185;28;20017;-77
2020/12/01 00:13:14;;;;;;;22.85;13.60;;;-0.70;93.30;;;;;;5029069;28;20022;-77
2020/12/01 00:15:39;;;;;;;19.15;13.02;;;-0.90;90.50;;;;;;5027837;28;20490;-78
2020/12/01 00:18:05;;;;;;;23.77;15.25;;;0.10;90.90;;;;;;5029272;28;20037;-77
2020/12/01 00:20:30;;;;;;;27.98;16.67;;;-0.90;90.90;;;;;;5028643;28;20033;-77
2020/12/01 00:22:56;;;;;;;23.98;16.15;;;-0.70;98.80;;;;;;5027752;28;20068;-77
2020/12/01 00:25:22;;;;;;;25.55;15.15;;;1.20;97.00;;;;;;5027620;28;20037;-77
2020/12/01 00:27:48;;;;;;;30.33;16.98;;;0.80;92.70;;;;;;5027594;28;20050;-77
2020/12/01 00:30:24;;;;;;;25.33;16.55;;;-0.80;92.70;;;;;;5011237;28;20072;-77
2020/12/01 00:32:50;;;;;;;26.52;17.02;;;-0.80;92.90;;;;;;5027645;28;20112;-77
2020/12/01 00:35:22;;;;;;;24.27;16.45;;;-0.60;96.70;;;;;;5028675;28;20025;-77
2020/12/01 00:37:47;;;;;;;24.23;15.83;;;0.30;97.40;;;;;;5028895;28;20370;-77
2020/12/01 00:40:13;;;;;;;22.52;14.85;;;-0.80;92.60;;;;;;5027596;28;20091;-77
2020/12/01 00:42:39;;;;;;;23.73;13.73;;;0.40;93.10;;;;;;5011551;28;20113;-77
2020/12/01 00:45:05;;;;;;;21.42;13.18;;;-0.70;93.10;;;;;;5028652;28;20032;-77
2020/12/01 00:47:31;;;;;;;20.77;12.25;;;;;;;;;;5010876;28;20042;-77
2020/12/01 00:49:57;;;;;;;20.80;12.98;;;-0.50;96.20;;;;;;5027365;28;20021;-77
2020/12/01 00:52:23;;;;;;;18.83;13.00;;;0.80;93.50;;;;;;5026849;28;20375;-78
2020/12/01 00:54:48;;;;;;;17.88;12.60;;;0.00;93.30;;;;;;5024553;28;20083;-77
2020/12/01 00:57:14;;;;;;;18.55;11.35;;;0.70;93.30;;;;;;5028021;28;20486;-77
2020/12/01 00:59:39;;;;;;;16.77;10.55;;;0.10;99.90;;;;;;5026904;28;20033;-77
2020/12/01 01:02:05;;;;;;;16.83;11.25;;;1.80;97.70;;;;;;5027176;28;20348;-77
2020/12/01 01:04:31;;;;;;;16.40;11.27;;;0.00;92.60;;;;;;5026974;28;20028;-77
2020/12/01 01:06:57;;;;;;;17.50;11.68;;;-0.10;92.70;;;;;;5028507;28;20033;-77
2020/12/01 01:09:22;;;;;;;19.35;11.60;;;1.60;93.10;;;;;;5027177;28;20032;-77
2020/12/01 01:11:48;;;;;;;18.58;11.68;;;;;;;;;;5010741;28;20021;-77
2020/12/01 01:14:14;;;;;;;21.05;11.00;;;0.10;96.00;;;;;;5027362;28;20025;-77
2020/12/01 01:16:40;;;;;;;20.83;12.57;;;0.00;93.10;;;;;;5027178;28;20367;-77
2020/12/01 01:19:06;;;;;;;19.55;11.23;;;-0.10;92.80;;;;;;5010617;28;20448;-77
2020/12/01 01:21:32;;;;;;;16.45;11.40;;;1.40;93.20;;;;;;5028311;28;20067;-77
2020/12/01 01:23:57;;;;;;;17.17;11.43;;;0.50;99.90;;;;;;5027037;28;20071;-78
2020/12/01 01:26:23;;;;;;;16.40;10.90;;;2.40;97.90;;;;;;5028456;28;20107;-77
2020/12/01 01:28:48;;;;;;;19.00;11.05;;;0.20;92.80;;;;;;5028707;28;20029;-77
2020/12/01 01:31:18;;;;;;;19.05;12.05;;;2.50;93.60;;;;;;5028528;28;20410;-77
2020/12/01 01:33:43;;;;;;;18.40;12.27;;;0.50;99.90;;;;;;5028731;28;20060;-78
2020/12/01 01:36:09;;;;;;;19.33;12.35;;;1.70;93.50;;;;;;5030979;28;20408;-78
2020/12/01 01:38:34;;;;;;;19.33;12.63;;;1.10;98.00;;;;;;5030617;28;20033;-77
2020/12/01 01:41:00;;;;;;;19.92;13.63;;;2.20;93.80;;;;;;5030666;28;20030;-78
2020/12/01 01:43:26;;;;;;;24.40;15.30;;;1.10;94.00;;;;;;5013795;28;20030;-77
2020/12/01 01:45:51;;;;;;;20.83;13.85;;;0.50;99.90;;;;;;5031530;28;20022;-77
2020/12/01 01:48:27;;;;;;;22.25;13.63;;;0.80;93.70;;;;;;5014046;28;20378;-78
2020/12/01 01:51:05;;;;;;;23.00;13.05;;;0.50;93.60;;;;;;5014711;28;20075;-77
2020/12/01 01:53:32;;;;;;;22.60;15.18;;;1.90;94.20;;;;;;5030447;28;20364;-77
2020/12/01 01:56:00;;;;;;;24.48;15.15;;;0.30;93.70;;;;;;5030179;28;20064;-77
2020/12/01 01:58:27;;;;;;;21.25;14.50;;;0.30;99.90;;;;;;5013533;28;20367;-78
2020/12/01 02:00:58;;;;;;;20.75;14.05;;;0.20;94.00;;;;;;5013749;28;20025;-77
2020/12/01 02:03:38;;;;;;;22.75;14.43;;;1.70;94.40;;;;;;5014206;28;20031;-77
2020/12/01 02:06:28;;;;;;;23.92;14.13;;;0.40;94.20;;;;;;5030253;28;20121;-77
2020/12/01 02:09:24;;;;;;;22.48;14.35;;;0.40;94.30;;;;;;5029937;28;20037;-78
2020/12/01 02:11:50;;;;;;;20.33;13.80;;;0.40;94.40;;;;;;5016045;28;20121;-78
2020/12/01 02:14:26;;;;;;;21.92;14.60;;;1.90;94.80;;;;;;5013370;28;20519;-78
2020/12/01 02:16:54;;;;;;;21.08;13.48;;;0.70;99.90;;;;;;5014319;28;20095;-78
2020/12/01 02:19:22;;;;;;;23.77;13.45;;;2.10;99.30;;;;;;5029901;28;20083;-78
2020/12/01 02:21:48;;;;;;;22.08;13.75;;;0.30;94.30;;;;;;5013527;28;20546;-78
2020/12/01 02:24:16;;;;;;;23.15;14.32;;;0.20;94.40;;;;;;5029780;28;20060;-78
2020/12/01 02:26:44;;;;;;;18.70;12.70;;;0.70;99.90;;;;;;5012670;28;20066;-78
2020/12/01 02:29:12;;;;;;;21.17;13.75;;;1.90;94.70;;;;;;5029971;28;20025;-78
2020/12/01 02:31:38;;;;;;;19.80;12.70;;;0.70;94.40;;;;;;5013028;28;20092;-78
2020/12/01 02:34:07;;;;;;;18.83;13.20;;;1.80;94.90;;;;;;5012926;28;20472;-78
2020/12/01 02:36:32;;;;;;;19.58;12.70;;;0.70;94.60;;;;;;5029701;28;20116;-78
2020/12/01 02:38:58;;;;;;;21.27;12.57;;;1.10;99.90;;;;;;5013013;28;20482;-77
2020/12/01 02:41:24;;;;;;;18.67;12.60;;;0.80;94.70;;;;;;5030362;28;20033;-77
2020/12/01 02:43:49;;;;;;;22.60;12.85;;;2.90;95.40;;;;;;5029244;28;20025;-78
2020/12/01 02:46:15;;;;;;;17.65;11.57;;;1.10;95.00;;;;;;5030396;28;20037;-77
2020/12/01 02:48:41;;;;;;;19.00;12.23;;;2.30;95.20;;;;;;5029235;28;20448;-78
2020/12/01 02:51:07;;;;;;;17.08;11.95;;;;;;;;;;5029324;28;20037;-78
2020/12/01 02:53:32;;;;;;;18.08;12.02;;;0.40;97.70;;;;;;5030358;28;20025;-78
2020/12/01 02:55:58;;;;;;;20.02;12.13;;;1.60;95.10;;;;;;5012785;28;20021;-78
2020/12/01 02:58:23;;;;;;;20.10;12.25;;;1.20;95.00;;;;;;5029093;28;20156;-78
2020/12/01 03:00:49;;;;;;;20.08;11.80;;;2.50;95.50;;;;;;5029097;28;20506;-78
2020/12/01 03:03:14;;;;;;;17.10;11.30;;;1.10;99.90;;;;;;5029122;28;20033;-78
2020/12/01 03:05:40;;;;;;;14.48;10.05;;;2.40;99.90;;;;;;5029033;28;20041;-78
2020/12/01 03:08:06;;;;;;;18.27;10.75;;;1.00;95.30;;;;;;5028877;28;20040;-78
2020/12/01 03:10:31;;;;;;;12.90;9.43;;;1.00;95.20;;;;;;5029095;28;20200;-78
2020/12/01 03:12:57;;;;;;;15.70;10.20;;;1.10;95.10;;;;;;5028998;28;20021;-78
2020/12/01 03:15:23;;;;;;;13.60;9.07;;;;;;;;;;5028864;28;20033;-78
2020/12/01 03:17:49;;;;;;;14.65;9.43;;;1.30;97.90;;;;;;5029887;28;20179;-78
2020/12/01 03:20:15;;;;;;;13.63;9.15;;;2.80;95.30;;;;;;5028863;28;20522;-78
2020/12/01 03:22:40;;;;;;;15.15;10.05;;;1.60;95.00;;;;;;5012114;28;20033;-79
2020/12/01 03:25:06;;;;;;;14.45;9.80;;;1.30;99.90;;;;;;5028321;28;20459;-79
2020/12/01 03:27:31;;;;;;;16.25;10.10;;;1.30;95.10;;;;;;5011838;28;20144;-79
2020/12/01 03:29:57;;;;;;;13.82;8.80;;;2.80;95.50;;;;;;5044539;28;20029;-78
2020/12/01 03:32:23;;;;;;;14.63;9.05;;;1.40;95.20;;;;;;5028086;28;20040;-79
2020/12/01 03:34:50;;;;;;;15.15;10.18;;;2.00;95.20;;;;;;5028477;28;20018;-78
2020/12/01 03:37:16;;;;;;;19.75;11.88;;;1.30;99.90;;;;;;4995884;28;20022;-78
2020/12/01 03:39:41;;;;;;;22.33;14.25;;;2.20;95.20;;;;;;5028412;28;20024;-78
2020/12/01 03:42:07;;;;;;;18.75;13.32;;;2.60;95.40;;;;;;5029350;28;20363;-78
2020/12/01 03:44:32;;;;;;;19.60;13.80;;;1.30;95.10;;;;;;5011628;28;20456;-78
2020/12/01 03:46:58;;;;;;;14.88;10.15;;;1.00;95.20;;;;;;5011304;28;20033;-78
2020/12/01 03:49:24;;;;;;;14.18;9.25;;;1.50;99.90;;;;;;5029369;28;20468;-78
2020/12/01 03:51:49;;;;;;;14.38;9.15;;;2.60;95.80;;;;;;5011920;28;20053;-78
2020/12/01 03:54:15;;;;;;;13.60;9.20;;;3.20;95.90;;;;;;5028146;28;20030;-78
2020/12/01 03:56:40;;;;;;;13.15;9.68;;;2.30;95.80;;;;;;5010944;28;20417;-78
2020/12/01 03:59:06;;;;;;;12.57;8.85;;;1.20;95.30;;;;;;5011524;28;20030;-78
2020/12/01 04:01:32;;;;;;;15.60;9.23;;;1.30;99.90;;;;;;5011711;28;20057;-78
2020/12/01 04:03:58;;;;;;;13.27;9.77;;;2.40;95.60;;;;;;5027988;28;20093;-78
2020/12/01 04:06:23;;;;;;;11.27;7.35;;;3.10;95.60;;;;;;5011331;28;20468;-78
2020/12/01 04:08:49;;;;;;;9.20;7.05;;;1.20;95.30;;;;;;5028023;28;20029;-78
2020/12/01 04:11:15;;;;;;;9.68;6.13;;;1.80;95.80;;;;;;5029365;28;20515;-79
2020/12/01 04:13:41;;;;;;;9.73;6.18;;;1.40;99.90;;;;;;5011283;28;20072;-79
2020/12/01 04:16:06;;;;;;;9.32;5.47;;;2.50;96.20;;;;;;5028762;28;20057;-79
2020/12/01 04:18:32;;;;;;;7.05;5.47;;;2.70;95.90;;;;;;5011460;28;20428;-79
2020/12/01 04:20:58;;;;;;;9.68;5.22;;;2.50;95.70;;;;;;5029303;28;20033;-79
2020/12/01 04:23:23;;;;;;;9.05;5.68;;;1.70;95.50;;;;;;5027685;28;20681;-79
2020/12/01 04:25:49;;;;;;;7.90;5.78;;;1.50;99.90;;;;;;4994858;28;20037;-79
2020/12/01 04:28:14;;;;;;;7.97;5.10;;;3.10;95.80;;;;;;5027312;28;20046;-79
2020/12/01 04:30:40;;;;;;;7.22;4.05;;;3.10;95.70;;;;;;5027702;28;20029;-79
2020/12/01 04:33:05;;;;;;;6.50;4.68;;;3.30;95.60;;;;;;5028820;28;20097;-79
2020/12/01 04:35:31;;;;;;;7.25;4.22;;;3.50;95.40;;;;;;5027687;28;20026;-79
2020/12/01 04:37:58;;;;;;;6.10;4.50;;;1.80;99.90;;;;;;5027674;28;20029;-79
2020/12/01 04:40:26;;;;;;;6.32;4.35;;;3.30;98.90;;;;;;5027706;28;20444;-79
2020/12/01 04:42:57;;;;;;;5.85;4.32;;;0.70;94.50;;;;;;5011031;28;20072;-79
2020/12/01 04:45:22;;;;;;;4.90;3.80;;;2.60;94.70;;;;;;5011143;28;20021;-80
2020/12/01 04:48:11;;;;;;;4.05;3.30;;;2.10;99.90;;;;;;5010918;28;20418;-79
2020/12/01 04:50:39;;;;;;;4.47;3.33;;;3.20;97.90;;;;;;5028042;28;20092;-79
2020/12/01 04:53:17;;;;;;;5.57;3.58;;;3.60;98.30;;;;;;5011158;28;20026;-80
2020/12/01 04:55:57;;;;;;;5.05;3.53;;;2.10;94.20;;;;;;5026907;28;20034;-80
2020/12/01 04:58:46;;;;;;;5.28;3.70;;;2.10;94.10;;;;;;5028841;28;20029;-79
2020/12/01 05:01:14;;;;;;;4.40;3.53;;;2.20;93.70;;;;;;5028000;28;20153;-79
2020/12/01 05:03:57;;;;;;;5.28;4.13;;;2.60;93.70;;;;;;5010942;28;20108;-79
2020/12/01 05:06:51;;;;;;;5.88;4.05;;;2.30;93.60;;;;;;5027353;28;20057;-79
2020/12/01 05:09:42;;;;;;;6.28;4.82;;;2.40;93.30;;;;;;5016246;28;20033;-79
2020/12/01 05:12:12;;;;;;;6.47;4.45;;;2.40;93.00;;;;;;5031216;28;20079;-80
2020/12/01 05:14:42;;;;;;;6.38;4.85;;;;;;;;;;5031021;28;20033;-79
2020/12/01 05:17:35;;;;;;;9.38;5.35;;;2.40;95.00;;;;;;5032341;28;20371;-80
2020/12/01 05:20:01;;;;;;;7.97;5.53;;;2.60;92.10;;;;;;5030298;28;20117;-79
2020/12/01 05:22:26;;;;;;;9.07;6.15;;;3.10;92.50;;;;;;4997727;28;20567;-78
2020/12/01 05:24:52;;;;;;;7.40;5.57;;;2.40;99.90;;;;;;5013827;28;20024;-78
2020/12/01 05:27:32;;;;;;;9.55;6.32;;;3.00;92.00;;;;;;5031470;28;20095;-77
2020/12/01 05:30:13;;;;;;;9.40;6.75;;;2.60;91.90;;;;;;5030564;28;20048;-78
2020/12/01 05:32:53;;;;;;;10.23;7.00;;;2.60;92.00;;;;;;5030309;28;20025;-77
2020/12/01 05:35:25;;;;;;;10.68;7.10;;;3.30;92.20;;;;;;5015225;28;20063;-77
2020/12/01 05:38:02;;;;;;;11.77;7.30;;;3.00;92.30;;;;;;5032222;28;20630;-77
2020/12/01 05:40:29;;;;;;;10.05;7.75;;;2.30;99.90;;;;;;5030920;28;20103;-78
2020/12/01 05:42:55;;;;;;;11.18;7.35;;;3.70;96.70;;;;;;5014384;28;20071;-78
2020/12/01 05:45:29;;;;;;;12.82;8.73;;;3.60;93.20;;;;;;5014276;28;20025;-78
2020/12/01 05:48:02;;;;;;;12.55;8.50;;;2.30;93.00;;;;;;5014170;28;20079;-76
2020/12/01 05:50:30;;;;;;;14.73;9.35;;;2.20;93.10;;;;;;5014353;28;20029;-76
2020/12/01 05:53:01;;;;;;;15.90;9.55;;;2.70;93.40;;;;;;5014232;28;20022;-77
2020/12/01 05:55:27;;;;;;;12.90;8.57;;;3.10;94.70;;;;;;5031702;28;20075;-77
2020/12/01 05:58:11;;;;;;;12.07;8.30;;;2.10;93.50;;;;;;5030289;28;20426;-74
2020/12/01 06:00:38;;;;;;;12.55;9.10;;;2.00;93.40;;;;;;5031936;28;20124;-78
2020/12/01 06:03:22;;;;;;;12.98;8.65;;;1.80;93.50;;;;;;5014210;28;20029;-80
2020/12/01 06:05:52;;;;;;;12.77;8.70;;;2.00;93.50;;;;;;5031924;28;20036;-77
2020/12/01 06:08:57;;;;;;;9.65;6.82;;;2.20;98.20;;;;;;5030264;28;20068;-76
2020/12/01 06:11:38;;;;;;;13.82;8.43;;;2.00;94.60;;;;;;5029384;28;20032;-76
2020/12/01 06:14:15;;;;;;;10.77;8.68;;;1.90;94.10;;;;;;5030213;28;20049;-77
2020/12/01 06:17:20;;;;;;;9.95;7.22;;;1.80;99.90;;;;;;5030609;28;20041;-77
2020/12/01 06:19:53;;;;;;;8.10;6.30;;;1.90;94.00;;;;;;5026021;28;20049;-77
2020/12/01 06:22:19;;;;;;;9.10;6.50;;;3.10;98.20;;;;;;5014221;28;20430;-80
2020/12/01 06:25:06;;;;;;;8.70;5.80;;;1.80;94.50;;;;;;5031109;28;20033;-77
2020/12/01 06:27:40;;;;;;;9.70;6.03;;;1.50;99.90;;;;;;5031359;28;20053;-77
2020/12/01 06:30:47;;;;;;;8.38;6.22;;;1.70;94.00;;;;;;5028916;28;20030;-79
2020/12/01 06:33:36;;;;;;;8.40;6.25;;;1.80;94.00;;;;;;5030331;28;20530;-78
2020/12/01 06:36:24;;;;;;;9.70;5.90;;;1.70;93.90;;;;;;5030030;28;20029;-78
2020/12/01 06:39:05;;;;;;;8.48;6.30;;;1.70;94.00;;;;;;5026285;28;20037;-77
2020/12/01 06:41:35;;;;;;;5.35;4.60;;;1.60;94.10;;;;;;5012471;28;20045;-77
2020/12/01 06:44:01;;;;;;;5.85;4.80;;;2.80;94.40;;;;;;5013297;28;20056;-77
2020/12/01 06:46:39;;;;;;;5.90;4.38;;;1.70;94.10;;;;;;5013041;28;20041;-80
2020/12/01 06:49:14;;;;;;;4.60;3.47;;;1.70;99.90;;;;;;5013319;28;20401;-78
2020/12/01 06:51:40;;;;;;;5.57;4.35;;;;;;;;;;5012843;28;20122;-80
2020/12/01 06:54:11;;;;;;;5.07;4.28;;;1.20;96.70;;;;;;5028429;28;20464;-79
2020/12/01 06:56:36;;;;;;;5.75;3.53;;;1.50;94.00;;;;;;5012028;28;20025;-79
2020/12/01 06:59:10;;;;;;;17.42;10.13;;;1.80;94.20;;;;;;5012985;28;20048;-79
2020/12/01 07:01:36;;;;;;;25.27;14.93;;;2.10;94.40;;;;;;5012676;28;20523;-79
2020/12/01 07:04:04;;;;;;;60.30;36.00;;;2.20;94.50;;;;;;5029041;28;20040;-79
2020/12/01 07:07:06;;;;;;;36.50;25.00;;;1.50;94.10;;;;;;5031212;28;20029;-79
2020/12/01 07:09:45;;;;;;;10.38;8.63;;;1.50;94.00;;;;;;5032150;28;20099;-80
2020/12/01 07:12:13;;;;;;;6.32;5.72;;;1.40;94.30;;;;;;4997563;28;20036;-80
2020/12/01 07:14:59;;;;;;;5.97;5.47;;;1.80;94.30;;;;;;5030243;28;20030;-81
2020/12/01 07:17:51;;;;;;;6.28;5.35;;;1.50;96.70;;;;;;5029252;28;20064;-80
2020/12/01 07:20:28;;;;;;;5.00;4.50;;;1.50;94.00;;;;;;5030071;28;20033;-80
2020/12/01 07:22:55;;;;;;;4.85;3.60;;;1.50;94.00;;;;;;5030343;28;20032;-81
2020/12/01 07:25:34;;;;;;;6.45;4.47;;;1.30;99.90;;;;;;5012042;28;20045;-80
2020/12/01 07:28:18;;;;;;;5.45;4.00;;;1.50;96.50;;;;;;5030327;28;20049;-82
2020/12/01 07:30:49;;;;;;;6.22;4.18;;;2.20;94.30;;;;;;5027924;28;20062;-80
2020/12/01 07:33:19;;;;;;;4.50;4.00;;;1.40;94.00;;;;;;5030103;28;20025;-80
2020/12/01 07:35:53;;;;;;;4.68;3.75;;;1.50;99.90;;;;;;5012313;28;20040;-80
2020/12/01 07:38:25;;;;;;;4.30;3.65;;;1.90;94.30;;;;;;5012165;28;20021;-80
2020/12/01 07:40:52;;;;;;;4.63;3.60;;;3.30;94.80;;;;;;5012640;28;20021;-80
2020/12/01 07:43:19;;;;;;;4.03;3.47;;;1.00;94.30;;;;;;5028212;28;20033;-79
2020/12/01 07:45:45;;;;;;;5.93;5.32;;;1.20;99.90;;;;;;5012151;28;20439;-79
2020/12/01 07:48:20;;;;;;;3.97;3.58;;;2.20;94.80;;;;;;5012045;28;20033;-80
2020/12/01 07:50:46;;;;;;;6.28;4.60;;;1.40;94.60;;;;;;5012408;28;20475;-80
2020/12/01 07:53:14;;;;;;;5.55;4.63;;;2.70;95.00;;;;;;5028360;28;20033;-81
2020/12/01 07:55:55;;;;;;;5.07;4.00;;;1.90;94.80;;;;;;5012236;28;20029;-80
2020/12/01 07:58:21;;;;;;;4.95;4.15;;;1.40;94.60;;;;;;5028283;28;20079;-80
2020/12/01 08:00:51;;;;;;;4.82;4.10;;;2.80;94.90;;;;;;4995736;28;20466;-80
2020/12/01 08:03:24;;;;;;;5.80;4.07;;;1.50;96.80;;;;;;5011135;28;20349;-80
2020/12/01 08:05:50;;;;;;;6.63;4.70;;;1.50;94.40;;;;;;5012387;28;20431;-79
2020/12/01 08:08:17;;;;;;;6.55;5.13;;;2.60;94.60;;;;;;5027796;28;20070;-82
2020/12/01 08:10:43;;;;;;;7.68;4.70;;;2.60;94.60;;;;;;5011975;28;20481;-80
2020/12/01 08:13:09;;;;;;;7.18;5.05;;;3.30;94.90;;;;;;5011583;28;20021;-82
2020/12/01 08:15:35;;;;;;;8.25;5.45;;;1.70;95.00;;;;;;5011616;28;20071;-81
2020/12/01 08:18:04;;;;;;;7.25;4.60;;;2.10;94.90;;;;;;5028152;28;20038;-80
2020/12/01 08:20:30;;;;;;;4.88;3.90;;;2.10;94.70;;;;;;4995206;28;20460;-80
2020/12/01 08:22:57;;;;;;;5.57;4.22;;;2.80;94.70;;;;;;5012091;28;20028;-81
2020/12/01 08:25:24;;;;;;;6.60;4.60;;;2.60;94.70;;;;;;5027824;28;20047;-79
2020/12/01 08:28:20;;;;;;;6.03;4.72;;;2.60;94.60;;;;;;5011157;28;20061;-80
2020/12/01 08:30:59;;;;;;;9.40;5.70;;;1.50;94.30;;;;;;5027819;28;20045;-80
2020/12/01 08:33:45;;;;;;;7.47;5.70;;;1.50;94.30;;;;;;5027842;28;20037;-80
2020/12/01 08:36:26;;;;;;;6.47;5.13;;;1.50;94.20;;;;;;5027545;28;20042;-80
2020/12/01 08:39:31;;;;;;;8.43;5.82;;;1.60;94.20;;;;;;5011734;28;20033;-80
2020/12/01 08:42:17;;;;;;;7.07;5.50;;;1.70;96.60;;;;;;5028395;28;20037;-80
2020/12/01 08:45:11;;;;;;;7.65;5.95;;;1.60;94.20;;;;;;5031584;28;20070;-80
2020/12/01 08:47:37;;;;;;;5.97;5.38;;;1.60;94.10;;;;;;5031616;28;20128;-80
2020/12/01 08:50:12;;;;;;;7.68;6.68;;;1.90;94.40;;;;;;5015095;28;20104;-81
2020/12/01 08:53:27;;;;;;;7.55;6.05;;;1.70;96.00;;;;;;4998989;28;20072;-80
2020/12/01 08:55:56;;;;;;;7.75;6.88;;;2.60;94.20;;;;;;5031657;28;20029;-81
2020/12/01 08:58:27;;;;;;;8.80;6.80;;;2.50;94.30;;;;;;5015686;28;20048;-81
2020/12/01 09:01:03;;;;;;;8.35;7.53;;;1.70;94.10;;;;;;5032780;28;20044;-80
2020/12/01 09:03:31;;;;;;;7.97;6.97;;;1.70;99.90;;;;;;5031241;28;20033;-80
2020/12/01 09:05:56;;;;;;;6.38;5.65;;;3.80;94.30;;;;;;4998731;28;20077;-80
2020/12/01 09:11:18;;;;;;;5.63;4.85;;;3.50;93.90;;;;;;5015946;28;20060;-80
2020/12/01 09:14:04;;;;;;;7.78;6.47;;;1.90;93.60;;;;;;5014639;28;20033;-79
2020/12/01 09:24:18;;;;;;;5.47;4.13;;;3.00;92.90;;;;;;5017354;28;20032;-80
2020/12/01 09:26:43;;;;;;;4.35;3.83;;;3.40;92.20;;;;;;5014491;28;20365;-79
2020/12/01 09:29:09;;;;;;;4.10;3.70;;;3.70;92.10;;;;;;5014543;28;20036;-79
2020/12/01 09:31:39;;;;;;;4.97;3.55;;;3.30;91.50;;;;;;5014699;28;20040;-80
2020/12/01 09:34:04;;;;;;;6.15;4.85;;;4.50;95.20;;;;;;5014586;28;20024;-79
2020/12/01 09:36:30;;;;;;;6.50;4.80;;;3.30;91.40;;;;;;5014291;28;20030;-79
2020/12/01 09:38:55;;;;;;;6.80;5.28;;;2.80;91.40;;;;;;5014273;28;20101;-80
2020/12/01 09:41:22;;;;;;;6.07;4.72;;;3.50;91.60;;;;;;5030960;28;20029;-79
2020/12/01 09:44:04;;;;;;;5.70;4.43;;;3.00;91.30;;;;;;4998344;28;20040;-80
2020/12/01 09:46:40;;;;;;;5.50;4.10;;;4.00;94.30;;;;;;5016612;28;20539;-79
2020/12/01 09:49:06;;;;;;;6.25;3.75;;;3.10;91.20;;;;;;5032042;28;20041;-79
2020/12/01 09:51:32;;;;;;;10.60;5.43;;;3.20;91.40;;;;;;5030372;28;20380;-82
2020/12/01 09:59:21;;;;;;;5.45;4.10;;;4.00;91.30;;;;;;5014432;28;20040;-79
2020/12/01 10:12:51;;;;;;;5.18;4.03;;;3.60;91.90;;;;;;5028879;28;20037;-80
2020/12/01 10:36:50;;;;;;;7.22;4.90;;;3.70;92.00;;;;;;5029948;28;20081;-81
2020/12/01 10:39:15;;;;;;;5.93;4.93;;;3.10;91.90;;;;;;4980860;28;20030;-82
2020/12/01 10:41:42;;;;;;;6.72;5.00;;;3.80;92.50;;;;;;5029306;28;20025;-81
2020/12/01 10:44:08;;;;;;;6.95;4.95;;;2.80;92.30;;;;;;5013377;28;20094;-83
2020/12/01 10:46:34;;;;;;;8.05;5.00;;;3.70;92.30;;;;;;5013239;28;20041;-80
2020/12/01 10:48:59;;;;;;;7.50;5.13;;;3.60;92.40;;;;;;5029687;28;20431;-82
2020/12/01 10:51:25;;;;;;;8.52;6.35;;;2.80;92.20;;;;;;4996778;28;20125;-80
2020/12/01 10:53:51;;;;;;;7.18;5.20;;;3.40;92.30;;;;;;5029500;28;20029;-83
2020/12/01 10:56:17;;;;;;;6.35;4.63;;;3.00;92.20;;;;;;5013008;28;20363;-82
2020/12/01 10:58:42;;;;;;;5.75;5.18;;;3.20;95.50;;;;;;5029546;28;20017;-80
2020/12/01 11:01:08;;;;;;;7.00;5.15;;;3.10;92.20;;;;;;5012959;28;20423;-81
2020/12/01 11:03:34;;;;;;;9.40;6.40;;;3.30;92.30;;;;;;5012745;28;20029;-81
2020/12/01 11:05:59;;;;;;;13.93;9.77;;;4.30;92.00;;;;;;5012789;28;20033;-80
2020/12/01 11:08:25;;;;;;;42.75;22.80;;;2.80;91.60;;;;;;4996168;28;20376;-81
2020/12/01 11:10:50;;;;;;;21.48;12.45;;;4.40;95.70;;;;;;5029027;28;20045;-82
2020/12/01 11:13:16;;;;;;;20.30;11.68;;;3.50;92.10;;;;;;5028562;28;20160;-81
2020/12/01 11:15:42;;;;;;;23.23;17.83;;;3.30;92.10;;;;;;4996269;28;20036;-80
2020/12/01 11:18:07;;;;;;;12.65;9.73;;;4.20;92.60;;;;;;5029163;28;20033;-81
2020/12/01 11:20:33;;;;;;;44.20;26.33;;;3.20;92.30;;;;;;5012267;28;20558;-80
2020/12/01 11:22:59;;;;;;;40.92;21.52;;;3.40;96.10;;;;;;5012738;28;20475;-80
2020/12/01 11:25:25;;;;;;;39.85;26.77;;;3.30;92.60;;;;;;5012119;28;20044;-82
2020/12/01 11:27:50;;;;;;;43.20;26.20;;;3.00;92.60;;;;;;5012252;28;20045;-81
2020/12/01 11:30:17;;;;;;;112.80;46.10;;;2.60;92.40;;;;;;4995967;28;20566;-80
2020/12/01 11:32:43;;;;;;;34.70;20.05;;;3.50;92.60;;;;;;5012353;28;20116;-80
2020/12/01 11:35:09;;;;;;;27.92;16.15;;;2.90;96.30;;;;;;5029962;28;20168;-81
2020/12/01 11:37:34;;;;;;;12.60;7.85;;;2.90;92.80;;;;;;5028557;28;20029;-80
2020/12/01 11:40:00;;;;;;;7.32;6.57;;;2.80;92.70;;;;;;5011876;28;20485;-81
2020/12/01 11:42:25;;;;;;;6.70;5.15;;;2.50;92.80;;;;;;5011899;28;20026;-81
2020/12/01 11:44:51;;;;;;;6.05;4.47;;;;;;;;;;5028499;28;20049;-80
2020/12/01 11:47:17;;;;;;;5.88;4.90;;;2.70;95.80;;;;;;5029485;28;20036;-81
2020/12/01 11:49:43;;;;;;;7.90;5.38;;;3.40;93.00;;;;;;5011770;28;20025;-81
2020/12/01 11:52:08;;;;;;;6.30;4.65;;;3.10;93.40;;;;;;5012215;28;20432;-80
2020/12/01 11:54:34;;;;;;;7.63;4.85;;;2.90;93.00;;;;;;5011924;28;20033;-81
2020/12/01 11:57:00;;;;;;;6.97;4.57;;;3.50;93.20;;;;;;5011979;28;20033;-81
2020/12/01 11:59:25;;;;;;;7.90;5.32;;;3.80;93.50;;;;;;4995455;28;20538;-82
2020/12/01 12:01:51;;;;;;;12.75;5.50;;;3.40;93.30;;;;;;5028253;28;20421;-81
2020/12/01 12:04:17;;;;;;;10.45;6.35;;;3.10;93.20;;;;;;5028145;28;20091;-81
2020/12/01 12:07:07;;;;;;;6.90;5.78;;;3.10;99.90;;;;;;4998092;28;20029;-80
2020/12/01 12:10:10;;;;;;;8.57;6.82;;;5.70;95.50;;;;;;5030582;28;20364;-80
2020/12/01 12:12:36;;;;;;;8.55;6.03;;;5.70;93.50;;;;;;5028765;28;20348;-81
2020/12/01 12:15:03;;;;;;;8.25;6.93;;;3.30;92.80;;;;;;5011517;28;20044;-81
2020/12/01 12:17:28;;;;;;;8.30;6.90;;;3.20;92.70;;;;;;5011103;28;20033;-81
2020/12/01 12:19:54;;;;;;;12.68;8.07;;;3.20;92.70;;;;;;5011519;28;20030;-81
2020/12/01 12:22:19;;;;;;;13.73;8.23;;;3.10;92.40;;;;;;5011488;28;20057;-81
2020/12/01 12:24:45;;;;;;;11.57;7.55;;;3.60;92.50;;;;;;5029331;28;20076;-81
2020/12/01 12:27:11;;;;;;;11.93;8.05;;;3.80;92.50;;;;;;5027560;28;20061;-81
2020/12/01 12:29:37;;;;;;;11.80;8.05;;;3.90;92.40;;;;;;5027763;28;20036;-82
2020/12/01 12:32:03;;;;;;;13.10;7.20;;;3.20;92.20;;;;;;5011373;28;20021;-81
2020/12/01 12:34:28;;;;;;;8.80;6.90;;;3.90;92.20;;;;;;4995285;28;20021;-82
2020/12/01 12:36:55;;;;;;;9.85;6.10;;;4.60;95.80;;;;;;5029240;28;20022;-80
2020/12/01 12:39:21;;;;;;;8.05;5.80;;;4.40;92.40;;;;;;5011350;28;20704;-83
2020/12/01 12:41:46;;;;;;;8.20;5.90;;;3.10;92.10;;;;;;5011053;28;20460;-81
2020/12/01 12:44:13;;;;;;;7.80;6.22;;;3.50;92.10;;;;;;5011085;28;20057;-80
2020/12/01 12:46:38;;;;;;;9.52;6.82;;;3.00;99.90;;;;;;5029074;28;20026;-82
2020/12/01 12:49:05;;;;;;;7.90;7.10;;;3.60;95.90;;;;;;5027815;28;20120;-82
2020/12/01 12:51:30;;;;;;;8.63;6.68;;;3.00;92.50;;;;;;4994899;28;20056;-82
2020/12/01 12:53:56;;;;;;;37.28;21.45;;;3.00;92.20;;;;;;5028095;28;20045;-81
2020/12/01 12:56:23;;;;;;;27.70;16.85;;;3.80;92.30;;;;;;5028099;28;20433;-81
2020/12/01 12:58:49;;;;;;;12.32;8.93;;;4.10;92.30;;;;;;5011218;28;20064;-81
2020/12/01 13:01:14;;;;;;;8.27;6.88;;;4.70;95.90;;;;;;5010817;28;20025;-80
2020/12/01 13:03:41;;;;;;;7.82;6.05;;;3.40;91.60;;;;;;5027413;28;20527;-83
2020/12/01 13:06:07;;;;;;;6.03;5.43;;;4.10;91.70;;;;;;4994910;28;20208;-80
2020/12/01 13:08:33;;;;;;;7.68;6.85;;;3.70;91.60;;;;;;5010968;28;20037;-81
2020/12/01 13:10:58;;;;;;;9.15;7.07;;;3.70;91.40;;;;;;4994694;28;20061;-81
2020/12/01 13:13:24;;;;;;;26.67;21.13;;;3.90;95.10;;;;;;5027508;28;20029;-81
2020/12/01 13:15:49;;;;;;;22.30;18.05;;;3.90;91.00;;;;;;5010963;28;20444;-81
2020/12/01 13:18:15;;;;;;;11.18;8.75;;;4.20;90.90;;;;;;5011144;28;20025;-82
2020/12/01 13:20:40;;;;;;;7.97;6.75;;;3.70;90.80;;;;;;5010871;28;20033;-83
2020/12/01 13:23:06;;;;;;;8.88;7.07;;;4.30;91.00;;;;;;5010694;28;20480;-81
2020/12/01 13:25:32;;;;;;;10.52;7.90;;;4.70;94.90;;;;;;4994666;28;20053;-81
2020/12/01 13:27:58;;;;;;;11.95;8.98;;;4.00;90.80;;;;;;5026963;28;20065;-81
2020/12/01 13:30:24;;;;;;;10.90;8.30;;;3.60;90.70;;;;;;5013468;28;20132;-81
2020/12/01 13:32:49;;;;;;;8.48;7.57;;;3.70;91.00;;;;;;5014637;28;20134;-83
2020/12/01 13:35:15;;;;;;;9.27;7.47;;;3.70;91.30;;;;;;5030897;28;20780;-81
2020/12/01 13:37:42;;;;;;;7.78;6.28;;;3.80;94.90;;;;;;4998032;28;20564;-83
2020/12/01 13:40:08;;;;;;;6.95;6.25;;;3.90;90.90;;;;;;5014250;28;20406;-80
2020/12/01 13:42:34;;;;;;;9.45;6.60;;;3.90;91.20;;;;;;5014204;28;20017;-81
2020/12/01 13:44:59;;;;;;;9.23;7.10;;;3.40;98.50;;;;;;5014035;28;20482;-82
2020/12/01 13:47:25;;;;;;;12.75;11.45;;;3.30;91.30;;;;;;5013757;28;20113;-81
2020/12/01 13:49:51;;;;;;;8.48;7.20;;;3.90;95.10;;;;;;5030236;28;20033;-78
2020/12/01 13:52:16;;;;;;;9.18;7.72;;;3.70;91.40;;;;;;5030553;28;20678;-79